createdAt,value
2019-06-15T00:02:59.999Z,82.44
2019-06-15T00:06:36.263Z,82.14
2019-06-15T00:10:11.576Z,81.44
2019-06-15T00:13:54.244Z,82.25
2019-06-15T00:17:30.306Z,82.40
2019-06-15T00:21:12.897Z,81.87
2019-06-15T00:24:48.499Z,82.75
2019-06-15T00:28:31.117Z,82.56
2019-06-15T00:32:06.659Z,82.90
2019-06-15T00:35:42.648Z,83.72
2019-06-15T00:39:25.309Z,84.18
2019-06-15T00:43:01.415Z,83.29
2019-06-15T00:46:24.738Z,82.82
2019-06-15T00:50:00.160Z,83.26
2019-06-15T00:56:53.438Z,83.35
2019-06-15T01:00:17.138Z,82.46
2019-06-15T01:03:56.913Z,82.96
2019-06-15T01:30:27.881Z,83.31
2019-06-15T01:34:10.899Z,82.82
2019-06-15T01:37:48.204Z,83.61
2019-06-15T01:41:30.786Z,83.23
2019-06-15T01:45:07.000Z,83.37
2019-06-15T01:48:42.240Z,83.04
2019-06-15T01:52:25.280Z,82.33
2019-06-15T01:56:01.403Z,82.66
2019-06-15T01:59:43.971Z,83.12
2019-06-15T02:03:19.474Z,83.34
2019-06-15T02:07:02.075Z,82.82
2019-06-15T02:10:37.824Z,83.52
2019-06-15T02:14:20.421Z,83.68
2019-06-15T02:17:55.825Z,84.31
2019-06-15T02:21:20.008Z,83.71
2019-06-15T02:24:55.369Z,83.96
2019-06-15T02:28:37.960Z,83.94
2019-06-15T02:32:13.603Z,82.95
2019-06-15T02:35:36.873Z,84.10
2019-06-15T02:39:12.889Z,82.79
2019-06-15T02:42:55.472Z,83.95
2019-06-15T02:46:31.588Z,84.32
2019-06-15T02:50:14.129Z,84.75
2019-06-15T02:53:50.271Z,83.96
2019-06-15T02:57:32.994Z,84.19
2019-06-15T03:01:15.665Z,84.11
2019-06-15T03:04:58.759Z,83.86
2019-06-15T03:08:34.514Z,83.76
2019-06-15T03:12:09.830Z,84.05
2019-06-15T03:15:52.439Z,84.39
2019-06-15T03:19:27.847Z,83.90
2019-06-15T03:23:10.383Z,84.22
2019-06-15T03:26:46.575Z,83.29
2019-06-15T03:30:29.115Z,82.33
2019-06-15T03:34:04.802Z,81.58
2019-06-15T03:37:47.375Z,81.81
2019-06-15T03:41:22.758Z,81.98
2019-06-15T03:45:05.545Z,81.99
2019-06-15T03:48:41.524Z,81.95
2019-06-15T03:52:17.004Z,81.95
2019-06-15T03:55:59.762Z,81.72
2019-06-15T03:59:35.210Z,81.50
2019-06-15T04:03:10.672Z,84.12
2019-06-15T04:06:53.316Z,84.02
2019-06-15T04:10:28.602Z,81.86
2019-06-15T04:14:04.179Z,81.60
2019-06-15T04:17:47.111Z,82.07
2019-06-15T04:21:26.525Z,81.07
2019-06-15T04:24:49.695Z,80.88
2019-06-15T04:28:26.053Z,80.75
2019-06-15T04:32:09.104Z,80.17
2019-06-15T04:35:44.764Z,79.64
2019-06-15T04:39:27.467Z,80.61
2019-06-15T04:43:03.646Z,80.23
2019-06-15T04:46:46.347Z,79.39
2019-06-15T04:50:22.456Z,79.72
2019-06-15T04:54:05.358Z,79.46
2019-06-15T04:57:41.422Z,79.89
2019-06-15T05:01:24.431Z,79.28
2019-06-15T05:05:02.773Z,80.00
2019-06-15T05:08:26.559Z,80.72
2019-06-15T05:12:09.570Z,79.62
2019-06-15T05:23:42.500Z,79.40
2019-06-15T05:27:18.075Z,81.56
2019-06-15T05:30:53.714Z,82.31
2019-06-15T05:34:38.679Z,83.85
2019-06-15T05:38:52.414Z,83.93
2019-06-15T05:42:35.832Z,84.06
2019-06-15T05:46:13.529Z,85.36
2019-06-15T05:49:49.070Z,85.30
2019-06-15T05:53:32.091Z,86.30
2019-06-15T05:57:21.569Z,85.92
2019-06-15T06:05:20.915Z,85.90
2019-06-15T06:08:59.153Z,86.04
2019-06-15T06:12:42.320Z,86.16
2019-06-15T06:16:18.575Z,85.86
2019-06-15T06:19:57.051Z,85.49
2019-06-15T06:23:40.204Z,85.07
2019-06-15T06:27:16.037Z,85.33
2019-06-15T06:30:59.962Z,85.38
2019-06-15T06:34:36.880Z,85.51
2019-06-15T06:38:19.626Z,85.81
2019-06-15T06:42:02.491Z,86.52
2019-06-15T06:45:38.711Z,86.78
2019-06-15T06:53:15.442Z,85.25
2019-06-15T06:56:58.332Z,84.09
2019-06-15T07:00:37.816Z,83.22
2019-06-15T07:04:20.497Z,83.00
2019-06-15T07:07:55.765Z,82.08
2019-06-15T07:11:32.161Z,80.00
2019-06-15T07:15:15.152Z,80.15
2019-06-15T07:18:51.287Z,78.84
2019-06-15T07:22:26.636Z,77.62
2019-06-15T07:26:09.664Z,77.36
2019-06-15T07:29:45.558Z,76.90
2019-06-15T07:33:28.131Z,77.15
2019-06-15T07:37:04.371Z,78.45
2019-06-15T07:40:47.127Z,76.38
2019-06-15T07:44:23.207Z,74.73
2019-06-15T07:48:06.113Z,72.10
2019-06-15T07:51:42.079Z,72.31
2019-06-15T07:55:24.786Z,69.38
2019-06-15T07:59:00.077Z,70.65
2019-06-15T08:02:43.074Z,71.13
2019-06-15T08:06:18.938Z,72.04
2019-06-15T08:09:54.191Z,72.46
2019-06-15T08:13:39.601Z,73.56
2019-06-15T08:17:15.055Z,71.09
2019-06-15T08:20:57.610Z,72.80
2019-06-15T08:24:33.117Z,73.08
2019-06-15T08:28:15.753Z,72.78
2019-06-15T08:31:51.864Z,71.88
2019-06-15T08:35:27.505Z,73.07
2019-06-15T08:39:10.282Z,73.64
2019-06-15T08:42:46.531Z,75.42
2019-06-15T08:46:29.098Z,77.60
2019-06-15T08:50:04.397Z,81.20
2019-06-15T08:53:47.157Z,83.81
2019-06-15T08:57:22.618Z,88.76
2019-06-15T09:01:05.273Z,89.46
2019-06-15T09:04:40.796Z,90.84
2019-06-15T09:08:23.430Z,90.58
2019-06-15T09:11:59.551Z,90.63
2019-06-15T09:20:01.581Z,91.77
2019-06-15T09:23:37.710Z,90.09
2019-06-15T09:27:20.543Z,89.80
2019-06-15T09:30:55.738Z,89.11
2019-06-15T09:34:38.475Z,88.78
2019-06-15T09:38:13.830Z,88.36
2019-06-15T09:41:56.391Z,85.48
2019-06-15T09:45:33.070Z,85.50
2019-06-15T09:49:16.018Z,83.42
2019-06-15T09:52:51.453Z,82.22
2019-06-15T09:56:27.088Z,81.06
2019-06-15T10:00:03.046Z,81.85
2019-06-15T10:03:45.886Z,79.02
2019-06-15T10:07:21.370Z,76.63
2019-06-15T10:10:56.685Z,76.49
2019-06-15T10:14:20.878Z,68.35
2019-06-15T10:17:44.428Z,65.25
2019-06-15T10:21:20.474Z,65.17
2019-06-15T10:25:03.275Z,62.15
2019-06-15T10:28:40.663Z,62.42
2019-06-15T10:32:04.190Z,58.50
2019-06-15T10:35:40.375Z,60.75
2019-06-15T10:39:22.927Z,54.54
2019-06-15T10:42:58.933Z,50.66
2019-06-15T10:46:22.038Z,52.98
2019-06-15T10:49:58.052Z,51.69
2019-06-15T10:53:34.439Z,51.91
2019-06-15T10:57:11.432Z,51.04
2019-06-15T11:00:54.147Z,49.85
2019-06-15T11:04:30.156Z,51.14
2019-06-15T11:08:12.744Z,50.67
2019-06-15T11:11:48.758Z,47.65
2019-06-15T11:15:52.624Z,47.18
2019-06-15T11:19:27.894Z,49.25
2019-06-15T11:27:09.295Z,46.40
2019-06-15T11:30:46.358Z,43.59
2019-06-15T11:34:32.756Z,45.57
2019-06-15T11:38:08.037Z,45.19
2019-06-15T11:41:50.848Z,49.62
2019-06-15T11:45:26.115Z,48.36
2019-06-15T11:49:08.840Z,50.15
2019-06-15T11:52:44.109Z,49.53
2019-06-15T11:56:27.185Z,49.71
2019-06-15T12:00:03.102Z,49.16
2019-06-15T12:03:46.117Z,47.39
2019-06-15T12:07:21.440Z,47.79
2019-06-15T12:11:04.245Z,45.65
2019-06-15T12:14:40.531Z,46.67
2019-06-15T12:18:23.125Z,44.71
2019-06-15T12:21:58.787Z,42.78
2019-06-15T12:25:34.280Z,45.38
2019-06-15T12:29:09.768Z,48.46
2019-06-15T12:32:52.859Z,48.82
2019-06-15T12:36:28.797Z,47.34
2019-06-15T12:40:23.660Z,48.04
2019-06-15T12:44:06.337Z,48.83
2019-06-15T12:47:42.349Z,46.62
2019-06-15T12:51:25.138Z,45.71
2019-06-15T12:55:00.751Z,41.85
2019-06-15T12:58:43.957Z,38.75
2019-06-15T13:02:19.367Z,40.29
2019-06-15T13:06:01.947Z,41.10
2019-06-15T13:09:37.510Z,42.15
2019-06-15T13:13:20.283Z,42.62
2019-06-15T13:16:56.399Z,42.78
2019-06-15T13:20:32.003Z,42.70
2019-06-15T13:24:14.806Z,42.18
2019-06-15T13:27:50.268Z,43.73
2019-06-15T13:31:32.877Z,46.69
2019-06-15T13:35:08.594Z,46.92
2019-06-15T13:38:44.772Z,44.89
2019-06-15T13:42:27.587Z,41.51
2019-06-15T13:46:03.028Z,36.81
2019-06-15T13:49:45.671Z,39.49
2019-06-15T13:53:20.997Z,37.44
2019-06-15T13:57:04.911Z,39.96
2019-06-15T14:00:41.714Z,46.27
2019-06-15T14:04:24.308Z,44.98
2019-06-15T14:07:59.775Z,45.69
2019-06-15T14:11:35.421Z,41.13
2019-06-15T14:15:19.605Z,40.99
2019-06-15T14:18:57.449Z,40.10
2019-06-15T14:22:40.039Z,37.63
2019-06-15T14:26:17.153Z,36.26
2019-06-15T14:29:59.842Z,35.21
2019-06-15T14:33:35.186Z,40.09
2019-06-15T14:37:10.982Z,41.14
2019-06-15T14:40:47.029Z,33.88
2019-06-15T14:44:23.757Z,33.84
2019-06-15T14:48:06.492Z,34.20
2019-06-15T14:51:42.107Z,38.30
2019-06-15T14:55:17.773Z,38.05
2019-06-15T14:58:40.886Z,30.25
2019-06-15T15:02:17.516Z,34.76
2019-06-15T15:06:00.247Z,31.95
2019-06-15T15:09:35.420Z,33.18
2019-06-15T15:13:11.132Z,35.26
2019-06-15T15:16:34.904Z,33.81
2019-06-15T15:20:10.764Z,32.85
2019-06-15T15:23:47.035Z,30.32
2019-06-15T15:27:29.593Z,36.98
2019-06-15T15:31:06.470Z,37.32
2019-06-15T15:34:42.291Z,37.26
2019-06-15T15:38:18.405Z,35.60
2019-06-15T15:42:01.337Z,33.90
2019-06-15T15:45:37.304Z,31.78
2019-06-15T15:49:19.888Z,34.95
2019-06-15T15:52:56.792Z,33.09
2019-06-15T15:56:40.011Z,31.71
2019-06-15T16:00:20.538Z,33.72
2019-06-15T16:03:56.319Z,39.94
2019-06-15T16:07:39.094Z,32.09
2019-06-15T16:11:16.820Z,30.75
2019-06-15T16:14:52.311Z,31.15
2019-06-15T16:18:36.480Z,34.58
2019-06-15T16:22:18.464Z,37.41
2019-06-15T16:26:01.002Z,34.12
2019-06-15T16:29:37.319Z,32.51
2019-06-15T16:33:19.943Z,35.57
2019-06-15T16:36:57.055Z,34.78
2019-06-15T16:40:40.093Z,34.48
2019-06-15T16:44:17.256Z,31.53
2019-06-15T16:48:00.242Z,31.92
2019-06-15T16:51:36.262Z,32.35
2019-06-15T16:55:18.882Z,30.65
2019-06-15T16:58:55.994Z,31.89
2019-06-15T17:02:38.845Z,31.91
2019-06-15T17:06:14.572Z,32.14
2019-06-15T17:09:57.157Z,32.60
2019-06-15T17:13:32.627Z,38.83
2019-06-15T17:17:17.363Z,37.78
2019-06-15T17:20:58.796Z,35.81
2019-06-15T17:24:41.415Z,37.66
2019-06-15T17:28:17.172Z,37.66
2019-06-15T17:31:40.795Z,42.27
2019-06-15T17:35:17.091Z,44.22
2019-06-15T17:38:59.720Z,40.40
2019-06-15T17:42:36.893Z,40.41
2019-06-15T17:46:19.746Z,43.20
2019-06-15T17:49:56.194Z,45.15
2019-06-15T17:53:39.025Z,45.57
2019-06-15T17:57:14.731Z,44.48
2019-06-15T18:00:57.708Z,42.58
2019-06-15T18:04:41.067Z,44.44
2019-06-15T18:08:26.763Z,41.30
2019-06-15T18:12:21.072Z,40.34
2019-06-15T18:16:06.427Z,41.59
2019-06-15T18:20:01.486Z,42.68
2019-06-15T18:23:46.460Z,45.75
2019-06-15T18:27:41.992Z,48.04
2019-06-15T18:31:26.858Z,46.90
2019-06-15T18:35:21.653Z,46.58
2019-06-15T18:39:06.303Z,46.04
2019-06-15T18:42:42.147Z,49.18
2019-06-15T18:46:27.119Z,50.88
2019-06-15T18:50:09.845Z,50.51
2019-06-15T18:53:52.394Z,51.53
2019-06-15T18:57:27.641Z,51.48
2019-06-15T19:01:10.230Z,50.16
2019-06-15T19:04:49.544Z,51.65
2019-06-15T19:08:30.806Z,49.26
2019-06-15T19:12:07.053Z,51.06
2019-06-15T19:15:49.874Z,51.48
2019-06-15T19:19:27.529Z,52.02
2019-06-15T19:23:10.200Z,51.98
2019-06-15T19:26:49.799Z,54.22
2019-06-15T19:30:26.416Z,53.91
2019-06-15T19:34:09.251Z,54.33
2019-06-15T19:37:47.142Z,54.85
2019-06-15T19:41:29.778Z,55.85
2019-06-15T19:48:48.289Z,57.25
2019-06-15T19:52:35.912Z,57.37
2019-06-15T19:56:26.041Z,58.87
2019-06-15T20:00:07.599Z,60.00
2019-06-15T20:03:50.301Z,61.45
2019-06-15T20:07:26.230Z,62.58
2019-06-15T20:11:09.073Z,63.07
2019-06-15T20:14:46.266Z,62.33
2019-06-15T20:18:29.319Z,61.95
2019-06-15T20:22:01.054Z,62.81
2019-06-15T20:25:43.631Z,63.33
2019-06-15T20:29:18.883Z,64.72
2019-06-15T20:32:56.788Z,64.43
2019-06-15T20:36:32.555Z,65.40
2019-06-15T20:40:08.228Z,64.82
2019-06-15T20:43:46.062Z,64.24
2019-06-15T20:47:28.834Z,63.51
2019-06-15T20:51:09.793Z,64.01
2019-06-15T20:54:42.276Z,64.15
2019-06-15T20:58:26.382Z,63.77
2019-06-15T21:02:08.694Z,64.62
2019-06-15T21:05:51.382Z,63.89
2019-06-15T21:09:27.724Z,63.09
2019-06-15T21:13:10.294Z,63.48
2019-06-15T21:16:46.326Z,63.79
2019-06-15T21:20:29.177Z,63.83
2019-06-15T21:24:06.460Z,64.46
2019-06-15T21:27:49.290Z,64.32
2019-06-15T21:31:26.214Z,64.35
2019-06-15T21:35:01.801Z,64.90
2019-06-15T21:38:46.650Z,64.91
2019-06-15T21:42:28.534Z,65.02
2019-06-15T21:46:11.276Z,65.78
2019-06-15T21:49:47.524Z,65.81
2019-06-15T21:53:30.254Z,66.23
2019-06-15T22:04:29.813Z,67.26
2019-06-15T22:08:06.455Z,67.95
2019-06-15T22:11:49.368Z,68.71
2019-06-15T22:15:26.585Z,69.27
2019-06-15T22:19:02.441Z,68.78
2019-06-15T22:22:47.083Z,69.21
2019-06-15T22:26:33.039Z,69.44
2019-06-15T22:34:38.295Z,69.03
2019-06-15T22:38:13.791Z,70.02
2019-06-15T22:41:56.440Z,70.11
2019-06-15T22:45:31.810Z,70.42
2019-06-15T22:57:06.220Z,70.89
2019-06-15T23:01:02.625Z,70.54
2019-06-15T23:04:47.163Z,70.68
2019-06-15T23:08:42.385Z,71.07
2019-06-15T23:12:25.062Z,70.78
2019-06-15T23:16:02.537Z,71.74
2019-06-15T23:19:46.141Z,70.75
2019-06-15T23:23:42.305Z,71.04
2019-06-15T23:27:25.010Z,71.09
2019-06-15T23:31:02.446Z,70.90
2019-06-15T23:34:38.742Z,71.14
2019-06-15T23:38:15.982Z,71.08
2019-06-15T23:41:58.743Z,70.41
2019-06-15T23:45:36.066Z,71.97
2019-06-15T23:49:11.424Z,70.85
2019-06-15T23:56:47.881Z,72.07
